createdAt,value
2023-03-13T00:01:44.941Z,3.65
2023-03-13T00:04:11.874Z,3.67
2023-03-13T00:06:39.960Z,4.45
2023-03-13T00:09:11.498Z,4.30
2023-03-13T00:11:38.798Z,3.72
2023-03-13T00:14:07.208Z,4.68
2023-03-13T00:16:35.631Z,4.25
2023-03-13T00:19:03.613Z,4.15
2023-03-13T00:21:31.043Z,3.72
2023-03-13T00:24:00.087Z,3.75
2023-03-13T00:26:31.013Z,3.20
2023-03-13T00:28:59.837Z,3.38
2023-03-13T00:31:30.324Z,3.90
2023-03-13T00:34:02.331Z,3.85
2023-03-13T00:36:33.649Z,3.97
2023-03-13T00:39:04.265Z,4.43
2023-03-13T00:41:33.276Z,4.35
2023-03-13T00:44:00.973Z,4.10
2023-03-13T00:46:30.348Z,4.55
2023-03-13T00:48:58.236Z,3.58
2023-03-13T00:51:28.013Z,3.95
2023-03-13T00:54:04.046Z,5.55
2023-03-13T00:56:30.954Z,4.13
2023-03-13T00:59:01.381Z,4.22
2023-03-13T01:01:32.847Z,3.92
2023-03-13T01:06:37.151Z,4.60
2023-03-13T01:09:06.571Z,4.15
2023-03-13T01:11:37.374Z,4.78
2023-03-13T01:14:08.862Z,3.67
2023-03-13T01:16:38.293Z,4.53
2023-03-13T01:19:14.548Z,4.97
2023-03-13T01:21:44.185Z,4.50
2023-03-13T01:24:11.201Z,3.00
2023-03-13T01:26:38.348Z,4.10
2023-03-13T01:29:05.371Z,4.93
2023-03-13T01:31:35.649Z,4.13
2023-03-13T01:34:06.109Z,5.15
2023-03-13T01:36:35.690Z,4.18
2023-03-13T01:39:02.697Z,4.85
2023-03-13T01:41:31.517Z,4.60
2023-03-13T01:44:01.061Z,5.22
2023-03-13T01:46:37.054Z,5.75
2023-03-13T01:49:18.191Z,4.93
2023-03-13T01:52:09.861Z,5.75
2023-03-13T01:54:52.426Z,6.60
2023-03-13T01:57:45.296Z,5.32
2023-03-13T02:00:22.568Z,5.93
2023-03-13T02:02:55.531Z,5.30
2023-03-13T02:05:44.645Z,4.25
2023-03-13T02:08:20.853Z,5.38
2023-03-13T02:11:21.430Z,5.88
2023-03-13T02:13:52.155Z,5.75
2023-03-13T02:16:21.337Z,6.25
2023-03-13T02:18:50.002Z,5.38
2023-03-13T02:21:33.688Z,3.88
2023-03-13T02:24:19.787Z,5.57
2023-03-13T02:26:47.399Z,4.95
2023-03-13T02:29:18.552Z,4.68
2023-03-13T02:31:48.110Z,4.75
2023-03-13T02:34:24.605Z,3.58
2023-03-13T02:36:52.879Z,4.55
2023-03-13T02:39:25.074Z,4.65
2023-03-13T02:41:54.210Z,4.10
2023-03-13T02:44:21.436Z,4.80
2023-03-13T02:46:52.536Z,3.20
2023-03-13T02:49:30.054Z,4.47
2023-03-13T02:52:14.284Z,3.78
2023-03-13T02:54:47.886Z,4.45
2023-03-13T02:57:14.758Z,3.78
2023-03-13T02:59:41.648Z,3.67
2023-03-13T03:02:08.754Z,4.78
2023-03-13T03:04:37.073Z,4.47
2023-03-13T03:07:04.218Z,3.38
2023-03-13T03:09:31.877Z,4.72
2023-03-13T03:12:03.667Z,5.00
2023-03-13T03:14:31.001Z,4.25
2023-03-13T03:16:57.970Z,4.53
2023-03-13T03:19:26.242Z,4.35
2023-03-13T03:21:53.203Z,5.13
2023-03-13T03:24:20.208Z,4.60
2023-03-13T03:26:47.174Z,3.75
2023-03-13T03:29:21.693Z,5.03
2023-03-13T03:31:51.329Z,4.20
2023-03-13T03:34:18.218Z,3.17
2023-03-13T03:36:46.220Z,4.80
2023-03-13T03:39:13.175Z,4.18
2023-03-13T03:41:40.199Z,4.80
2023-03-13T03:44:07.955Z,4.57
2023-03-13T03:49:19.945Z,4.20
2023-03-13T03:51:48.643Z,4.47
2023-03-13T03:54:19.143Z,5.05
2023-03-13T03:56:46.104Z,4.57
2023-03-13T03:59:12.908Z,4.13
2023-03-13T04:01:46.084Z,4.13
2023-03-13T04:04:15.700Z,4.60
2023-03-13T04:06:46.138Z,4.60
2023-03-13T04:09:13.452Z,4.50
2023-03-13T04:11:40.286Z,4.50
2023-03-13T04:14:09.206Z,4.28
2023-03-13T04:16:36.467Z,4.32
2023-03-13T04:19:03.450Z,5.13
2023-03-13T04:21:30.891Z,5.13
2023-03-13T04:24:04.698Z,6.20
2023-03-13T04:26:33.144Z,4.57
2023-03-13T04:29:00.608Z,4.28
2023-03-13T04:31:43.754Z,3.85
2023-03-13T04:34:29.272Z,5.50
2023-03-13T04:37:08.262Z,5.78
2023-03-13T04:40:01.862Z,5.38
2023-03-13T04:42:54.937Z,5.05
2023-03-13T04:45:24.646Z,4.65
2023-03-13T04:47:59.408Z,5.50
2023-03-13T04:51:01.561Z,4.43
2023-03-13T04:53:47.171Z,4.95
2023-03-13T04:56:43.942Z,5.35
2023-03-13T04:59:19.865Z,3.90
2023-03-13T05:02:05.677Z,4.88
2023-03-13T05:04:55.426Z,4.60
2023-03-13T05:07:44.948Z,4.13
2023-03-13T05:10:37.800Z,3.58
2023-03-13T05:13:10.764Z,4.00
2023-03-13T05:16:09.595Z,3.60
2023-03-13T05:18:56.127Z,3.70
2023-03-13T05:21:38.107Z,3.65
2023-03-13T05:24:26.884Z,4.45
2023-03-13T05:27:09.410Z,2.72
2023-03-13T05:29:45.964Z,2.78
2023-03-13T05:32:35.769Z,3.20
2023-03-13T05:35:23.524Z,3.30
2023-03-13T05:37:50.860Z,3.40
2023-03-13T05:40:38.023Z,3.40
2023-03-13T05:43:27.037Z,3.65
2023-03-13T05:46:14.172Z,3.67
2023-03-13T05:49:07.438Z,3.65
2023-03-13T05:51:52.595Z,3.20
2023-03-13T05:54:42.844Z,2.70
2023-03-13T05:57:12.539Z,2.72
2023-03-13T05:59:57.764Z,3.13
2023-03-13T06:02:56.148Z,3.47
2023-03-13T06:05:30.396Z,3.85
2023-03-13T06:07:58.048Z,3.38
2023-03-13T06:10:26.801Z,3.13
2023-03-13T06:12:58.907Z,3.28
2023-03-13T06:15:32.072Z,3.65
2023-03-13T06:18:13.085Z,3.35
2023-03-13T06:20:42.277Z,3.30
2023-03-13T06:23:09.477Z,2.60
2023-03-13T06:25:36.334Z,3.13
2023-03-13T06:28:03.255Z,3.53
2023-03-13T06:30:30.132Z,2.95
2023-03-13T06:32:58.869Z,3.08
2023-03-13T06:35:26.073Z,3.28
2023-03-13T06:37:54.159Z,2.47
2023-03-13T06:40:21.031Z,2.90
2023-03-13T06:42:47.922Z,2.53
2023-03-13T06:45:14.849Z,2.53
2023-03-13T06:47:41.755Z,2.58
2023-03-13T06:50:09.665Z,2.92
2023-03-13T06:52:44.004Z,3.20
2023-03-13T06:55:12.049Z,2.95
2023-03-13T06:57:38.916Z,1.80
2023-03-13T07:00:07.387Z,2.45
2023-03-13T07:02:34.228Z,3.53
2023-03-13T07:05:05.757Z,3.53
2023-03-13T07:07:35.917Z,3.75
2023-03-13T07:10:03.493Z,2.35
2023-03-13T07:12:30.310Z,3.47
2023-03-13T07:14:57.199Z,2.65
2023-03-13T07:17:24.155Z,2.65
2023-03-13T07:19:51.107Z,2.45
2023-03-13T07:22:17.989Z,3.13
2023-03-13T07:24:44.917Z,3.25
2023-03-13T07:27:11.851Z,3.20
2023-03-13T07:29:38.704Z,2.47
2023-03-13T07:32:06.358Z,3.00
2023-03-13T07:34:33.301Z,2.80
2023-03-13T07:37:00.142Z,2.90
2023-03-13T07:39:26.930Z,2.88
2023-03-13T07:41:53.744Z,2.70
2023-03-13T07:44:20.988Z,2.63
2023-03-13T07:46:48.528Z,2.38
2023-03-13T07:49:15.433Z,3.05
2023-03-13T07:51:44.287Z,2.13
2023-03-13T07:54:12.093Z,2.42
2023-03-13T07:56:39.893Z,3.30
2023-03-13T07:59:07.121Z,2.85
2023-03-13T08:01:34.514Z,2.03
2023-03-13T08:04:06.376Z,2.85
2023-03-13T08:06:37.594Z,3.17
2023-03-13T08:09:05.603Z,3.67
2023-03-13T08:11:32.713Z,2.40
2023-03-13T08:13:59.623Z,2.85
2023-03-13T08:16:34.993Z,2.70
2023-03-13T08:19:06.029Z,2.53
2023-03-13T08:21:36.774Z,2.33
2023-03-13T08:24:07.959Z,2.08
2023-03-13T08:26:38.388Z,2.30
2023-03-13T08:29:12.500Z,2.58
2023-03-13T08:31:52.763Z,3.22
2023-03-13T08:34:20.418Z,2.55
2023-03-13T08:36:47.867Z,2.72
2023-03-13T08:39:18.477Z,2.60
2023-03-13T08:41:46.046Z,3.63
2023-03-13T08:44:16.969Z,3.05
2023-03-13T08:46:45.404Z,2.92
2023-03-13T08:49:13.485Z,3.25
2023-03-13T08:51:40.878Z,3.33
2023-03-13T08:54:07.993Z,2.95
2023-03-13T08:56:35.121Z,3.47
2023-03-13T08:59:05.147Z,2.60
2023-03-13T09:01:34.662Z,3.67
2023-03-13T09:04:06.175Z,3.63
2023-03-13T09:06:38.639Z,3.67
2023-03-13T09:09:07.741Z,3.10
2023-03-13T09:11:38.010Z,2.53
2023-03-13T09:14:07.143Z,2.80
2023-03-13T09:16:35.188Z,2.97
2023-03-13T09:19:02.516Z,2.40
2023-03-13T09:21:35.599Z,3.63
2023-03-13T09:24:03.143Z,2.53
2023-03-13T09:26:30.760Z,2.33
2023-03-13T09:28:58.382Z,2.47
2023-03-13T09:31:32.341Z,2.78
2023-03-13T09:34:00.920Z,2.42
2023-03-13T09:36:28.493Z,2.13
2023-03-13T09:38:58.925Z,2.22
2023-03-13T09:41:55.433Z,2.42
2023-03-13T09:44:54.034Z,2.92
2023-03-13T09:47:33.162Z,2.88
2023-03-13T09:50:25.956Z,2.30
2023-03-13T09:53:01.937Z,3.05
2023-03-13T09:55:38.344Z,2.55
2023-03-13T09:58:13.966Z,1.92
2023-03-13T10:00:47.651Z,2.85
2023-03-13T10:03:29.235Z,2.30
2023-03-13T10:06:01.258Z,2.13
2023-03-13T10:11:11.269Z,1.95
2023-03-13T10:13:53.411Z,1.90
2023-03-13T10:16:36.356Z,2.05
2023-03-13T10:19:15.720Z,2.50
2023-03-13T10:21:48.214Z,1.95
2023-03-13T10:24:42.586Z,2.10
2023-03-13T10:27:16.287Z,1.98
2023-03-13T10:29:43.382Z,2.25
2023-03-13T10:32:15.241Z,1.83
2023-03-13T10:35:03.120Z,1.92
2023-03-13T10:37:41.520Z,2.30
2023-03-13T10:40:20.516Z,1.30
2023-03-13T10:42:47.672Z,2.00
2023-03-13T10:45:24.949Z,2.20
2023-03-13T10:48:00.217Z,1.50
2023-03-13T10:50:32.364Z,1.75
2023-03-13T10:53:19.974Z,1.73
2023-03-13T10:55:47.626Z,1.77
2023-03-13T10:58:34.617Z,2.20
2023-03-13T11:01:28.877Z,1.60
2023-03-13T11:03:58.381Z,1.85
2023-03-13T11:06:34.951Z,1.90
2023-03-13T11:09:28.161Z,2.03
2023-03-13T11:12:03.735Z,1.80
2023-03-13T11:14:30.692Z,1.90
2023-03-13T11:17:34.276Z,2.22
2023-03-13T11:20:27.700Z,1.83
2023-03-13T11:23:10.164Z,2.03
2023-03-13T11:26:16.624Z,1.67
2023-03-13T11:28:47.782Z,1.90
2023-03-13T11:31:36.189Z,1.95
2023-03-13T11:34:20.073Z,1.45
2023-03-13T11:37:11.677Z,2.05
2023-03-13T11:39:47.562Z,1.97
2023-03-13T11:42:46.631Z,1.80
2023-03-13T11:45:52.901Z,1.50
2023-03-13T11:48:59.346Z,1.20
2023-03-13T11:51:54.928Z,1.95
2023-03-13T11:54:46.522Z,1.50
2023-03-13T11:57:29.708Z,1.75
2023-03-13T12:00:31.361Z,1.60
2023-03-13T12:03:17.241Z,2.05
2023-03-13T12:05:51.925Z,1.50
2023-03-13T12:08:34.480Z,1.42
2023-03-13T12:11:04.042Z,1.70
2023-03-13T12:13:42.388Z,1.95
2023-03-13T12:16:21.066Z,1.65
2023-03-13T12:18:50.544Z,1.80
2023-03-13T12:21:39.839Z,1.52
2023-03-13T12:24:19.045Z,1.70
2023-03-13T12:26:59.290Z,1.73
2023-03-13T12:29:52.306Z,2.25
2023-03-13T12:32:41.277Z,1.70
2023-03-13T12:35:28.878Z,1.73
2023-03-13T12:38:23.673Z,1.50
2023-03-13T12:41:02.778Z,1.60
2023-03-13T12:43:36.785Z,1.48
2023-03-13T12:46:44.587Z,1.40
2023-03-13T12:49:42.057Z,1.70
2023-03-13T12:52:49.562Z,1.40
2023-03-13T12:55:33.840Z,1.58
2023-03-13T12:58:29.015Z,1.38
2023-03-13T13:01:02.126Z,1.05
2023-03-13T13:03:39.675Z,1.30
2023-03-13T13:06:12.699Z,2.00
2023-03-13T13:08:44.194Z,1.92
2023-03-13T13:11:38.865Z,1.10
2023-03-13T13:14:17.773Z,1.00
2023-03-13T13:17:28.173Z,1.15
2023-03-13T13:19:56.732Z,1.55
2023-03-13T13:22:38.790Z,1.52
2023-03-13T13:25:11.811Z,1.60
2023-03-13T13:27:38.560Z,1.40
2023-03-13T13:30:17.505Z,1.70
2023-03-13T13:32:53.860Z,1.60
2023-03-13T13:35:29.728Z,1.35
2023-03-13T13:38:18.267Z,1.20
2023-03-13T13:41:09.857Z,1.40
2023-03-13T13:43:46.445Z,1.15
2023-03-13T13:46:31.214Z,1.10
2023-03-13T13:49:07.718Z,1.35
2023-03-13T13:51:39.151Z,1.45
2023-03-13T13:54:34.620Z,1.70
2023-03-13T13:57:23.908Z,1.63
2023-03-13T13:59:59.563Z,1.38
2023-03-13T14:02:49.267Z,1.30
2023-03-13T14:05:22.482Z,1.25
2023-03-13T14:08:20.068Z,1.40
2023-03-13T14:11:03.620Z,1.40
2023-03-13T14:13:31.018Z,1.60
2023-03-13T14:16:10.953Z,1.30
2023-03-13T14:18:43.324Z,1.40
2023-03-13T14:21:14.301Z,1.58
2023-03-13T14:23:47.049Z,1.20
2023-03-13T14:26:24.138Z,1.65
2023-03-13T14:28:58.505Z,1.63
2023-03-13T14:31:32.845Z,1.38
2023-03-13T14:34:07.351Z,1.73
2023-03-13T14:37:36.943Z,1.45
2023-03-13T14:40:29.756Z,0.98
2023-03-13T14:43:01.826Z,1.52
2023-03-13T14:45:33.676Z,1.27
2023-03-13T14:50:39.698Z,1.25
2023-03-13T14:53:18.133Z,1.40
2023-03-13T14:55:45.042Z,1.55
2023-03-13T14:58:20.880Z,1.75
2023-03-13T15:00:49.706Z,1.42
2023-03-13T15:03:21.427Z,0.90
2023-03-13T15:06:11.739Z,1.20
2023-03-13T15:08:49.642Z,1.60
2023-03-13T15:11:29.422Z,1.27
2023-03-13T15:13:57.411Z,1.50
2023-03-13T15:16:27.049Z,1.40
2023-03-13T15:18:56.206Z,1.50
2023-03-13T15:21:30.172Z,1.33
2023-03-13T15:24:14.937Z,1.92
2023-03-13T15:26:41.821Z,1.60
2023-03-13T15:29:11.219Z,1.20
2023-03-13T15:31:39.751Z,1.30
2023-03-13T15:34:13.402Z,1.60
2023-03-13T15:36:41.782Z,1.42
2023-03-13T15:39:23.104Z,1.40
2023-03-13T15:41:50.525Z,1.80
2023-03-13T15:44:17.747Z,1.92
2023-03-13T15:46:44.796Z,1.92
2023-03-13T15:49:13.078Z,1.60
2023-03-13T15:51:40.192Z,1.55
2023-03-13T15:54:07.377Z,1.50
2023-03-13T15:56:38.035Z,1.13
2023-03-13T15:59:16.370Z,1.13
2023-03-13T16:01:45.328Z,1.10
2023-03-13T16:04:12.401Z,1.20
2023-03-13T16:06:39.449Z,1.50
2023-03-13T16:09:07.214Z,1.95
2023-03-13T16:11:34.642Z,1.92
2023-03-13T16:14:02.573Z,1.98
2023-03-13T16:16:36.879Z,1.67
2023-03-13T16:19:04.559Z,1.20
2023-03-13T16:21:34.756Z,1.65
2023-03-13T16:24:02.290Z,1.45
2023-03-13T16:26:32.316Z,1.80
2023-03-13T16:28:59.764Z,1.98
2023-03-13T16:31:30.476Z,1.10
2023-03-13T16:33:59.360Z,1.90
2023-03-13T16:36:31.431Z,1.48
2023-03-13T16:39:00.869Z,1.10
2023-03-13T16:41:28.983Z,1.40
2023-03-13T16:43:56.961Z,1.75
2023-03-13T16:46:30.142Z,1.40
2023-03-13T16:48:58.458Z,1.50
2023-03-13T16:51:28.557Z,1.50
2023-03-13T16:54:01.452Z,2.10
2023-03-13T16:56:36.018Z,1.45
2023-03-13T16:59:10.960Z,1.17
2023-03-13T17:01:38.464Z,1.67
2023-03-13T17:04:06.059Z,1.98
2023-03-13T17:06:42.514Z,1.70
2023-03-13T17:09:15.214Z,1.20
2023-03-13T17:11:42.929Z,1.50
2023-03-13T17:14:10.901Z,1.73
2023-03-13T17:16:46.257Z,1.90
2023-03-13T17:19:15.045Z,1.33
2023-03-13T17:21:42.500Z,1.60
2023-03-13T17:24:09.819Z,1.40
2023-03-13T17:26:39.753Z,2.20
2023-03-13T17:29:14.479Z,2.08
2023-03-13T17:31:41.791Z,1.63
2023-03-13T17:34:09.870Z,1.48
2023-03-13T17:36:37.157Z,1.83
2023-03-13T17:39:08.804Z,1.77
2023-03-13T17:41:36.395Z,1.80
2023-03-13T17:44:07.229Z,1.95
2023-03-13T17:46:43.473Z,1.83
2023-03-13T17:49:13.059Z,1.80
2023-03-13T17:51:41.598Z,1.50
2023-03-13T17:54:09.432Z,1.35
2023-03-13T17:56:40.276Z,1.52
2023-03-13T17:59:14.336Z,1.75
2023-03-13T18:01:42.285Z,1.63
2023-03-13T18:04:10.450Z,1.40
2023-03-13T18:06:45.536Z,1.58
2023-03-13T18:09:16.493Z,1.60
2023-03-13T18:11:43.616Z,2.05
2023-03-13T18:14:11.427Z,1.60
2023-03-13T18:16:50.543Z,2.35
2023-03-13T18:19:26.204Z,1.95
2023-03-13T18:21:55.497Z,1.48
2023-03-13T18:24:22.700Z,1.88
2023-03-13T18:26:50.605Z,1.45
2023-03-13T18:29:29.362Z,1.50
2023-03-13T18:31:59.572Z,1.55
2023-03-13T18:34:28.346Z,1.60
2023-03-13T18:36:55.773Z,1.42
2023-03-13T18:39:22.878Z,1.80
2023-03-13T18:41:52.301Z,1.70
2023-03-13T18:44:20.878Z,2.22
2023-03-13T18:46:48.010Z,1.92
2023-03-13T18:49:21.548Z,1.70
2023-03-13T18:51:50.609Z,2.13
2023-03-13T18:54:18.487Z,1.70
2023-03-13T18:56:47.348Z,1.85
2023-03-13T18:59:23.283Z,1.92
2023-03-13T19:01:51.149Z,2.22
2023-03-13T19:04:19.560Z,2.70
2023-03-13T19:06:47.935Z,1.70
2023-03-13T19:09:41.765Z,2.03
2023-03-13T19:12:06.396Z,1.77
2023-03-13T19:14:33.865Z,1.40
2023-03-13T19:17:00.749Z,1.92
2023-03-13T19:19:27.743Z,1.80
2023-03-13T19:21:57.430Z,1.90
2023-03-13T19:24:26.867Z,1.95
2023-03-13T19:26:58.922Z,1.45
2023-03-13T19:31:55.263Z,1.80
2023-03-13T19:34:22.484Z,2.03
2023-03-13T19:36:50.383Z,2.00
2023-03-13T19:39:25.918Z,2.05
2023-03-13T19:41:53.922Z,1.90
2023-03-13T19:44:21.992Z,2.10
2023-03-13T19:46:49.467Z,2.10
2023-03-13T19:49:19.450Z,2.53
2023-03-13T19:51:48.131Z,2.17
2023-03-13T19:54:15.715Z,1.85
2023-03-13T19:56:49.426Z,2.42
2023-03-13T19:59:20.293Z,2.50
2023-03-13T20:01:47.674Z,1.85
2023-03-13T20:04:16.021Z,2.50
2023-03-13T20:06:45.435Z,2.53
2023-03-13T20:09:16.679Z,2.10
2023-03-13T20:11:44.735Z,2.78
2023-03-13T20:14:12.233Z,2.75
2023-03-13T20:16:39.341Z,2.30
2023-03-13T20:19:07.108Z,2.55
2023-03-13T20:21:38.169Z,2.47
2023-03-13T20:24:05.454Z,2.38
2023-03-13T20:26:32.608Z,2.65
2023-03-13T20:28:59.724Z,2.25
2023-03-13T20:31:30.993Z,2.80
2023-03-13T20:33:59.300Z,2.40
2023-03-13T20:36:27.232Z,3.10
2023-03-13T20:38:54.570Z,2.00
2023-03-13T20:41:25.224Z,2.45
2023-03-13T20:43:53.474Z,2.45
2023-03-13T20:46:21.935Z,2.63
2023-03-13T20:48:50.455Z,2.83
2023-03-13T20:51:17.828Z,3.00
2023-03-13T20:53:45.055Z,3.17
2023-03-13T20:56:12.629Z,2.92
2023-03-13T20:58:39.789Z,3.17
2023-03-13T21:01:08.645Z,3.40
2023-03-13T21:03:36.950Z,2.67
2023-03-13T21:06:16.512Z,3.10
2023-03-13T21:08:45.533Z,2.75
2023-03-13T21:11:18.750Z,2.85
2023-03-13T21:13:46.305Z,2.70
2023-03-13T21:16:14.999Z,2.42
2023-03-13T21:18:42.525Z,2.70
2023-03-13T21:21:17.493Z,2.47
2023-03-13T21:23:46.294Z,2.85
2023-03-13T21:26:14.620Z,2.53
2023-03-13T21:28:42.060Z,1.70
2023-03-13T21:31:16.405Z,2.25
2023-03-13T21:33:46.386Z,2.22
2023-03-13T21:36:17.482Z,2.60
2023-03-13T21:38:45.250Z,2.58
2023-03-13T21:41:16.284Z,2.92
2023-03-13T21:43:44.807Z,2.78
2023-03-13T21:46:16.114Z,2.17
2023-03-13T21:51:17.968Z,2.58
2023-03-13T21:53:45.074Z,2.28
2023-03-13T21:56:15.848Z,2.42
2023-03-13T21:58:46.017Z,2.40
2023-03-13T22:01:15.287Z,2.60
2023-03-13T22:03:42.552Z,2.60
2023-03-13T22:06:21.077Z,2.10
2023-03-13T22:08:50.349Z,2.17
2023-03-13T22:11:18.436Z,3.00
2023-03-13T22:13:45.531Z,1.98
2023-03-13T22:16:12.638Z,1.70
2023-03-13T22:18:41.933Z,2.00
2023-03-13T22:21:09.308Z,2.10
2023-03-13T22:23:36.243Z,2.47
2023-03-13T22:26:03.905Z,2.70
2023-03-13T22:28:31.032Z,1.80
2023-03-13T22:31:02.851Z,2.28
2023-03-13T22:33:30.369Z,2.15
2023-03-13T22:35:57.582Z,2.55
2023-03-13T22:38:24.836Z,2.35
2023-03-13T22:41:04.730Z,1.98
2023-03-13T22:43:31.764Z,2.05
2023-03-13T22:45:59.965Z,2.45
2023-03-13T22:48:27.712Z,2.35
2023-03-13T22:51:13.727Z,2.80
2023-03-13T22:53:42.448Z,2.10
2023-03-13T22:56:12.246Z,2.85
2023-03-13T22:58:41.286Z,2.42
2023-03-13T23:01:18.466Z,2.65
2023-03-13T23:03:46.687Z,2.08
2023-03-13T23:06:19.536Z,2.22
2023-03-13T23:08:47.409Z,2.25
2023-03-13T23:11:16.125Z,2.20
2023-03-13T23:13:43.350Z,2.20
2023-03-13T23:16:12.684Z,2.30
2023-03-13T23:18:40.801Z,2.33
2023-03-13T23:21:13.002Z,2.17
2023-03-13T23:23:41.237Z,1.90
2023-03-13T23:26:12.645Z,1.58
2023-03-13T23:28:41.097Z,2.13
2023-03-13T23:31:17.287Z,2.17
2023-03-13T23:33:45.331Z,1.98
2023-03-13T23:36:18.547Z,1.92
2023-03-13T23:38:54.347Z,2.20
2023-03-13T23:41:21.947Z,1.75
2023-03-13T23:43:49.261Z,2.08
2023-03-13T23:46:20.946Z,2.25
2023-03-13T23:48:48.472Z,1.70
2023-03-13T23:51:15.551Z,2.25
2023-03-13T23:53:43.828Z,2.30
2023-03-13T23:56:12.058Z,2.35
2023-03-13T23:58:39.763Z,2.58
